createdAt,value
2023-01-26T00:01:12.835Z,0.62
2023-01-26T00:03:40.967Z,0.67
2023-01-26T00:06:10.536Z,0.75
2023-01-26T00:08:38.395Z,0.77
2023-01-26T00:11:08.702Z,0.67
2023-01-26T00:13:36.932Z,0.35
2023-01-26T00:16:05.473Z,0.42
2023-01-26T00:18:33.283Z,0.58
2023-01-26T00:21:02.540Z,0.47
2023-01-26T00:23:31.730Z,0.35
2023-01-26T00:25:59.649Z,0.33
2023-01-26T00:28:29.369Z,0.27
2023-01-26T00:31:03.536Z,0.38
2023-01-26T00:33:31.255Z,0.59
2023-01-26T00:35:59.133Z,0.43
2023-01-26T00:38:26.703Z,0.56
2023-01-26T00:40:54.530Z,0.45
2023-01-26T00:43:22.433Z,0.55
2023-01-26T00:45:51.336Z,0.58
2023-01-26T00:48:18.974Z,0.47
2023-01-26T00:50:46.610Z,0.35
2023-01-26T00:53:14.175Z,0.33
2023-01-26T00:55:41.763Z,0.35
2023-01-26T00:58:10.263Z,0.51
2023-01-26T01:00:39.602Z,0.51
2023-01-26T01:03:08.811Z,0.42
2023-01-26T01:05:36.531Z,0.30
2023-01-26T01:08:04.207Z,0.30
2023-01-26T01:10:31.772Z,0.34
2023-01-26T01:12:59.391Z,0.21
2023-01-26T01:15:26.992Z,0.06
2023-01-26T01:17:54.570Z,0.22
2023-01-26T01:20:23.490Z,0.11
2023-01-26T01:22:52.352Z,0.19
2023-01-26T01:25:20.005Z,0.06
2023-01-26T01:27:47.543Z,0.28
2023-01-26T01:30:15.286Z,0.25
2023-01-26T01:32:43.069Z,-0.07
2023-01-26T01:35:10.720Z,0.01
2023-01-26T01:37:39.635Z,0.15
2023-01-26T01:40:12.107Z,0.07
2023-01-26T01:42:39.870Z,0.19
2023-01-26T01:45:37.172Z,-0.02
2023-01-26T01:48:08.055Z,0.20
2023-01-26T01:50:40.536Z,0.14
2023-01-26T01:53:14.445Z,0.18
2023-01-26T01:55:42.784Z,0.31
2023-01-26T01:58:10.666Z,0.25
2023-01-26T02:00:38.333Z,0.16
2023-01-26T02:03:14.840Z,0.18
2023-01-26T02:05:49.905Z,0.30
2023-01-26T02:08:20.530Z,0.35
2023-01-26T02:10:51.149Z,0.23
2023-01-26T02:13:20.509Z,0.37
2023-01-26T02:15:48.389Z,0.22
2023-01-26T02:18:16.391Z,0.21
2023-01-26T02:20:47.686Z,0.24
2023-01-26T02:23:29.458Z,0.48
2023-01-26T02:26:11.332Z,0.20
2023-01-26T02:28:40.237Z,0.53
2023-01-26T02:31:08.892Z,0.39
2023-01-26T02:33:36.856Z,0.42
2023-01-26T02:36:05.552Z,0.35
2023-01-26T02:38:40.153Z,0.32
2023-01-26T02:41:12.256Z,0.33
2023-01-26T02:43:39.872Z,0.19
2023-01-26T02:46:07.485Z,0.23
2023-01-26T02:48:52.843Z,0.07
2023-01-26T02:51:20.396Z,0.11
2023-01-26T02:53:47.930Z,0.04
2023-01-26T02:56:15.863Z,-0.02
2023-01-26T02:58:43.443Z,-0.21
2023-01-26T03:01:11.427Z,0.08
2023-01-26T03:03:45.636Z,0.01
2023-01-26T03:06:15.173Z,0.10
2023-01-26T03:08:42.782Z,0.08
2023-01-26T03:11:10.525Z,0.03
2023-01-26T03:13:39.419Z,0.18
2023-01-26T03:16:08.917Z,0.07
2023-01-26T03:18:55.063Z,-0.12
2023-01-26T03:21:42.343Z,0.17
2023-01-26T03:24:30.727Z,0.04
2023-01-26T03:27:16.036Z,0.19
2023-01-26T03:29:45.688Z,0.22
2023-01-26T03:32:13.502Z,0.18
2023-01-26T03:34:41.097Z,0.26
2023-01-26T03:37:08.751Z,0.03
2023-01-26T03:39:54.069Z,0.12
2023-01-26T03:42:39.109Z,0.29
2023-01-26T03:45:26.536Z,0.13
2023-01-26T03:48:11.885Z,0.28
2023-01-26T03:50:57.301Z,0.12
2023-01-26T03:53:43.360Z,0.07
2023-01-26T03:56:18.062Z,0.17
2023-01-26T03:58:45.942Z,0.43
2023-01-26T04:01:20.034Z,0.33
2023-01-26T04:04:07.306Z,0.25
2023-01-26T04:06:53.626Z,0.06
2023-01-26T04:09:22.340Z,0.25
2023-01-26T04:11:50.189Z,0.27
2023-01-26T04:14:49.431Z,0.20
2023-01-26T04:17:37.955Z,0.37
2023-01-26T04:20:24.935Z,0.33
2023-01-26T04:22:52.659Z,0.25
2023-01-26T04:25:22.457Z,0.48
2023-01-26T04:27:50.230Z,0.37
2023-01-26T04:30:18.875Z,0.50
2023-01-26T04:32:47.894Z,0.44
2023-01-26T04:35:15.564Z,0.46
2023-01-26T04:37:43.688Z,0.39
2023-01-26T04:40:12.652Z,0.58
2023-01-26T04:42:40.446Z,0.48
2023-01-26T04:45:09.112Z,0.47
2023-01-26T04:47:36.669Z,0.46
2023-01-26T04:50:06.559Z,0.34
2023-01-26T04:52:34.187Z,0.39
2023-01-26T04:55:01.806Z,0.37
2023-01-26T04:57:29.413Z,0.38
2023-01-26T04:59:56.948Z,0.32
2023-01-26T05:02:24.498Z,0.38
2023-01-26T05:04:52.188Z,0.40
2023-01-26T05:07:21.330Z,0.50
2023-01-26T05:09:48.933Z,0.37
2023-01-26T05:12:34.568Z,0.44
2023-01-26T05:15:02.236Z,0.35
2023-01-26T05:17:29.818Z,0.32
2023-01-26T05:19:57.415Z,0.22
2023-01-26T05:22:26.356Z,0.22
2023-01-26T05:24:53.934Z,0.32
2023-01-26T05:27:24.157Z,0.34
2023-01-26T05:29:55.095Z,0.27
2023-01-26T05:32:22.960Z,0.19
2023-01-26T05:34:50.484Z,0.16
2023-01-26T05:37:18.069Z,0.22
2023-01-26T05:39:47.139Z,0.23
2023-01-26T05:42:15.295Z,0.45
2023-01-26T05:44:42.846Z,0.19
2023-01-26T05:47:10.426Z,0.22
2023-01-26T05:49:38.651Z,0.38
2023-01-26T05:52:09.578Z,0.40
2023-01-26T05:54:37.274Z,0.46
2023-01-26T05:57:06.296Z,0.41
2023-01-26T05:59:33.861Z,0.43
2023-01-26T06:02:02.113Z,0.33
2023-01-26T06:04:30.318Z,0.43
2023-01-26T06:06:59.703Z,0.33
2023-01-26T06:09:27.675Z,0.30
2023-01-26T06:11:55.450Z,0.48
2023-01-26T06:14:24.620Z,0.45
2023-01-26T06:16:54.131Z,0.40
2023-01-26T06:19:21.763Z,0.44
2023-01-26T06:21:49.331Z,0.31
2023-01-26T06:24:16.902Z,0.33
2023-01-26T06:26:44.636Z,0.19
2023-01-26T06:29:12.465Z,0.27
2023-01-26T06:31:41.517Z,0.03
2023-01-26T06:34:10.814Z,0.48
2023-01-26T06:36:38.485Z,0.25
2023-01-26T06:39:06.170Z,0.05
2023-01-26T06:41:33.869Z,-0.09
2023-01-26T06:44:01.481Z,0.00
2023-01-26T06:46:29.061Z,-0.28
2023-01-26T06:48:58.013Z,0.15
2023-01-26T06:51:45.177Z,0.47
2023-01-26T06:54:13.915Z,0.35
2023-01-26T06:56:41.633Z,0.30
2023-01-26T06:59:10.627Z,0.20
2023-01-26T07:01:42.324Z,0.04
2023-01-26T07:04:11.531Z,-0.09
2023-01-26T07:06:39.069Z,-0.21
2023-01-26T07:09:06.949Z,0.00
2023-01-26T07:11:34.599Z,-0.26
2023-01-26T07:14:02.170Z,-0.32
2023-01-26T07:16:31.441Z,-0.42
2023-01-26T07:19:00.967Z,-0.02
2023-01-26T07:21:29.871Z,0.08
2023-01-26T07:23:57.820Z,-0.22
2023-01-26T07:26:25.445Z,-0.30
2023-01-26T07:28:53.108Z,-0.27
2023-01-26T07:31:20.841Z,-0.23
2023-01-26T07:33:48.448Z,-0.36
2023-01-26T07:36:16.077Z,-0.30
2023-01-26T07:38:45.042Z,-0.56
2023-01-26T07:41:14.364Z,-0.55
2023-01-26T07:43:42.458Z,-0.31
2023-01-26T07:46:11.865Z,-0.33
2023-01-26T07:48:40.782Z,-0.35
2023-01-26T07:51:09.143Z,-0.48
2023-01-26T07:53:39.456Z,-0.68
2023-01-26T07:56:10.462Z,-0.52
2023-01-26T07:58:38.414Z,-0.47
2023-01-26T08:01:11.102Z,-0.45
2023-01-26T08:03:39.526Z,-0.48
2023-01-26T08:06:11.511Z,-0.52
2023-01-26T08:08:40.845Z,-0.30
2023-01-26T08:11:10.631Z,-0.38
2023-01-26T08:13:38.740Z,-0.46
2023-01-26T08:16:09.491Z,-0.48
2023-01-26T08:18:37.200Z,-0.47
2023-01-26T08:21:05.302Z,-0.23
2023-01-26T08:23:32.989Z,-0.69
2023-01-26T08:26:02.437Z,-0.43
2023-01-26T08:28:31.610Z,-0.34
2023-01-26T08:31:05.350Z,-0.27
2023-01-26T08:33:33.668Z,-0.49
2023-01-26T08:36:05.887Z,-0.39
2023-01-26T08:38:34.632Z,-0.47
2023-01-26T08:41:02.986Z,-0.55
2023-01-26T08:43:32.113Z,-0.59
2023-01-26T08:46:00.166Z,-0.48
2023-01-26T08:48:28.367Z,-0.55
2023-01-26T08:50:56.583Z,-0.49
2023-01-26T08:53:24.959Z,-0.30
2023-01-26T08:55:53.059Z,-0.11
2023-01-26T08:58:21.413Z,-0.29
2023-01-26T09:00:50.356Z,-0.24
2023-01-26T09:03:18.039Z,-0.10
2023-01-26T09:05:45.774Z,0.04
2023-01-26T09:08:13.377Z,-0.15
2023-01-26T09:10:41.246Z,0.09
2023-01-26T09:13:08.797Z,-0.24
2023-01-26T09:15:38.837Z,-0.03
2023-01-26T09:18:07.805Z,-0.27
2023-01-26T09:20:35.380Z,0.08
2023-01-26T09:23:03.019Z,0.20
2023-01-26T09:25:30.945Z,0.00
2023-01-26T09:27:58.716Z,-0.02
2023-01-26T09:30:26.543Z,0.03
2023-01-26T09:32:58.601Z,-0.34
2023-01-26T09:35:27.615Z,-0.21
2023-01-26T09:37:55.230Z,-0.51
2023-01-26T09:40:32.099Z,-0.27
2023-01-26T09:43:17.096Z,-0.28
2023-01-26T09:45:54.854Z,-0.10
2023-01-26T09:48:32.681Z,0.02
2023-01-26T09:51:06.609Z,0.00
2023-01-26T09:53:47.565Z,0.06
2023-01-26T09:56:19.502Z,0.02
2023-01-26T09:58:51.607Z,-0.18
2023-01-26T10:01:25.457Z,0.11
2023-01-26T10:04:05.436Z,-0.04
2023-01-26T10:06:35.260Z,-0.34
2023-01-26T10:09:15.597Z,-0.28
2023-01-26T10:11:48.196Z,-0.15
2023-01-26T10:14:22.474Z,-0.11
2023-01-26T10:16:52.898Z,0.09
2023-01-26T10:19:32.406Z,0.13
2023-01-26T10:22:06.941Z,-0.11
2023-01-26T10:24:34.882Z,0.04
2023-01-26T10:27:02.466Z,0.03
2023-01-26T10:29:30.090Z,0.28
2023-01-26T10:31:57.680Z,-0.14
2023-01-26T10:34:27.545Z,0.02
2023-01-26T10:37:03.175Z,-0.10
2023-01-26T10:39:30.834Z,-0.06
2023-01-26T10:41:59.805Z,-0.12
2023-01-26T10:44:33.933Z,0.08
2023-01-26T10:47:14.493Z,-0.01
2023-01-26T10:49:42.486Z,-0.07
2023-01-26T10:52:18.314Z,0.25
2023-01-26T10:54:46.397Z,0.15
2023-01-26T10:57:21.756Z,-0.29
2023-01-26T10:59:53.780Z,-0.07
2023-01-26T11:02:25.279Z,-0.34
2023-01-26T11:05:21.396Z,-0.20
2023-01-26T11:07:54.146Z,-0.17
2023-01-26T11:10:28.611Z,-0.02
2023-01-26T11:13:18.297Z,-0.31
2023-01-26T11:15:48.701Z,-0.23
2023-01-26T11:18:30.717Z,-0.24
2023-01-26T11:21:01.942Z,-0.05
2023-01-26T11:23:41.551Z,-0.41
2023-01-26T11:26:39.477Z,-0.44
2023-01-26T11:29:33.806Z,-0.51
2023-01-26T11:32:14.578Z,-0.47
2023-01-26T11:34:53.540Z,-0.40
2023-01-26T11:37:44.381Z,-0.37
2023-01-26T11:40:35.065Z,-0.10
2023-01-26T11:43:20.676Z,-0.57
2023-01-26T11:46:05.052Z,-0.37
2023-01-26T11:48:40.761Z,-0.41
2023-01-26T11:51:19.427Z,-0.36
2023-01-26T11:54:07.981Z,-0.44
2023-01-26T11:56:45.185Z,-0.47
2023-01-26T11:59:18.452Z,-0.70
2023-01-26T12:01:52.690Z,-0.57
2023-01-26T12:04:22.974Z,-0.58
2023-01-26T12:06:56.206Z,-0.68
2023-01-26T12:09:33.178Z,-0.15
2023-01-26T12:12:07.589Z,-0.23
2023-01-26T12:14:40.987Z,-0.10
2023-01-26T12:17:28.302Z,-0.33
2023-01-26T12:20:04.792Z,-0.26
2023-01-26T12:22:36.320Z,-0.25
2023-01-26T12:25:19.869Z,-0.22
2023-01-26T12:27:56.038Z,-0.41
2023-01-26T12:30:32.593Z,-0.27
2023-01-26T12:33:00.515Z,-0.07
2023-01-26T12:35:50.045Z,-0.39
2023-01-26T12:38:24.030Z,-0.46
2023-01-26T12:41:03.087Z,-0.54
2023-01-26T12:43:46.834Z,-0.29
2023-01-26T12:46:15.458Z,-0.35
2023-01-26T12:48:47.837Z,-0.26
2023-01-26T12:51:23.698Z,-0.21
2023-01-26T12:53:58.420Z,-0.32
2023-01-26T12:56:32.575Z,-0.52
2023-01-26T12:59:08.472Z,-0.44
2023-01-26T13:01:40.621Z,-0.25
2023-01-26T13:04:11.625Z,-0.22
2023-01-26T13:06:39.245Z,0.16
2023-01-26T13:09:21.510Z,-0.05
2023-01-26T13:11:52.230Z,-0.08
2023-01-26T13:14:37.637Z,-0.14
2023-01-26T13:17:48.792Z,-0.01
2023-01-26T13:20:24.619Z,0.22
2023-01-26T13:22:52.740Z,0.13
2023-01-26T13:25:27.695Z,0.32
2023-01-26T13:27:57.838Z,0.24
2023-01-26T13:30:36.094Z,0.19
2023-01-26T13:33:11.818Z,0.06
2023-01-26T13:35:40.603Z,-0.02
2023-01-26T13:38:16.025Z,0.23
2023-01-26T13:40:46.449Z,0.42
2023-01-26T13:43:27.018Z,0.29
2023-01-26T13:46:19.217Z,0.14
2023-01-26T13:48:49.611Z,0.10
2023-01-26T13:51:20.629Z,0.21
2023-01-26T13:53:54.599Z,-0.53
2023-01-26T13:56:25.893Z,-0.41
2023-01-26T13:58:54.159Z,-0.21
2023-01-26T14:01:23.343Z,-0.18
2023-01-26T14:04:03.612Z,-0.22
2023-01-26T14:06:31.517Z,-0.24
2023-01-26T14:08:59.686Z,-0.12
2023-01-26T14:11:30.198Z,-0.04
2023-01-26T14:14:00.580Z,0.02
2023-01-26T14:16:32.419Z,0.23
2023-01-26T14:19:07.793Z,0.31
2023-01-26T14:21:48.697Z,0.18
2023-01-26T14:24:18.724Z,0.33
2023-01-26T14:26:46.281Z,0.15
2023-01-26T14:29:21.273Z,0.21
2023-01-26T14:31:51.819Z,-0.11
2023-01-26T14:34:26.326Z,0.05
2023-01-26T14:37:08.320Z,0.18
2023-01-26T14:39:36.212Z,0.31
2023-01-26T14:42:04.693Z,0.29
2023-01-26T14:44:32.486Z,0.05
2023-01-26T14:47:05.703Z,0.28
2023-01-26T14:49:43.303Z,0.07
2023-01-26T14:52:23.814Z,-0.09
2023-01-26T14:54:53.109Z,-0.03
2023-01-26T14:57:22.562Z,0.27
2023-01-26T14:59:52.993Z,0.35
2023-01-26T15:02:24.374Z,0.28
2023-01-26T15:04:56.200Z,0.33
2023-01-26T15:07:34.961Z,0.37
2023-01-26T15:10:03.792Z,0.32
2023-01-26T15:12:35.014Z,0.48
2023-01-26T15:15:03.261Z,0.23
2023-01-26T15:17:38.794Z,0.27
2023-01-26T15:20:33.144Z,0.05
2023-01-26T15:23:00.806Z,-0.01
2023-01-26T15:25:30.032Z,0.09
2023-01-26T15:27:59.594Z,0.10
2023-01-26T15:30:29.332Z,0.06
2023-01-26T15:32:58.714Z,0.15
2023-01-26T15:35:28.067Z,0.12
2023-01-26T15:38:03.579Z,0.08
2023-01-26T15:40:31.631Z,-0.23
2023-01-26T15:43:12.972Z,-0.05
2023-01-26T15:45:43.349Z,0.03
2023-01-26T15:48:12.265Z,-0.39
2023-01-26T15:50:39.835Z,-0.14
2023-01-26T15:53:07.492Z,-0.35
2023-01-26T15:55:35.300Z,-0.28
2023-01-26T15:58:02.866Z,-0.35
2023-01-26T16:00:30.445Z,-0.31
2023-01-26T16:02:58.039Z,-0.29
2023-01-26T16:05:28.196Z,-0.31
2023-01-26T16:07:55.758Z,-0.34
2023-01-26T16:10:23.317Z,-0.18
2023-01-26T16:12:51.768Z,0.05
2023-01-26T16:15:29.384Z,-0.01
2023-01-26T16:17:57.044Z,-0.22
2023-01-26T16:20:24.780Z,0.04
2023-01-26T16:22:53.662Z,-0.13
2023-01-26T16:25:25.841Z,-0.17
2023-01-26T16:27:54.066Z,-0.31
2023-01-26T16:30:22.562Z,-0.15
2023-01-26T16:32:51.291Z,0.04
2023-01-26T16:35:20.831Z,-0.25
2023-01-26T16:37:48.567Z,-0.13
2023-01-26T16:40:19.274Z,0.02
2023-01-26T16:42:49.696Z,-0.34
2023-01-26T16:45:19.894Z,-0.12
2023-01-26T16:47:52.162Z,-0.14
2023-01-26T16:50:19.878Z,-0.18
2023-01-26T16:52:48.018Z,-0.19
2023-01-26T16:55:17.169Z,0.13
2023-01-26T16:57:46.624Z,-0.12
2023-01-26T17:00:17.081Z,-0.06
2023-01-26T17:02:47.627Z,-0.27
2023-01-26T17:05:16.814Z,-0.20
2023-01-26T17:07:44.429Z,0.04
2023-01-26T17:10:13.473Z,-0.05
2023-01-26T17:12:42.740Z,-0.49
2023-01-26T17:15:12.911Z,-0.32
2023-01-26T17:17:42.295Z,0.14
2023-01-26T17:20:19.337Z,0.49
2023-01-26T17:22:47.463Z,0.37
2023-01-26T17:25:16.924Z,0.31
2023-01-26T17:27:49.639Z,0.15
2023-01-26T17:30:18.528Z,0.17
2023-01-26T17:32:46.310Z,0.04
2023-01-26T17:35:14.321Z,0.28
2023-01-26T17:37:42.186Z,0.04
2023-01-26T17:40:11.276Z,0.46
2023-01-26T17:42:38.985Z,0.24
2023-01-26T17:45:09.940Z,-0.14
2023-01-26T17:47:38.605Z,0.01
2023-01-26T17:50:07.085Z,0.42
2023-01-26T17:52:36.427Z,0.12
2023-01-26T17:55:06.288Z,-0.12
2023-01-26T17:57:34.575Z,0.15
2023-01-26T18:00:02.240Z,0.18
2023-01-26T18:02:31.357Z,0.31
2023-01-26T18:04:58.985Z,0.08
2023-01-26T18:07:26.715Z,0.22
2023-01-26T18:09:54.258Z,0.41
2023-01-26T18:12:21.804Z,0.30
2023-01-26T18:14:49.552Z,0.35
2023-01-26T18:17:17.301Z,0.43
2023-01-26T18:19:46.449Z,0.43
2023-01-26T18:22:14.003Z,0.45
2023-01-26T18:24:41.613Z,0.47
2023-01-26T18:27:09.169Z,0.38
2023-01-26T18:29:36.777Z,0.53
2023-01-26T18:32:04.601Z,0.52
2023-01-26T18:34:32.224Z,0.52
2023-01-26T18:37:01.170Z,0.37
2023-01-26T18:39:28.860Z,0.43
2023-01-26T18:41:56.558Z,0.30
2023-01-26T18:44:27.163Z,-0.12
2023-01-26T18:46:55.032Z,-0.17
2023-01-26T18:49:22.670Z,0.37
2023-01-26T18:51:52.202Z,0.27
2023-01-26T18:54:21.244Z,0.47
2023-01-26T18:56:48.833Z,0.40
2023-01-26T18:59:17.761Z,-0.02
2023-01-26T19:01:45.364Z,0.06
2023-01-26T19:04:12.991Z,-0.08
2023-01-26T19:06:40.683Z,0.05
2023-01-26T19:09:09.654Z,-0.20
2023-01-26T19:11:39.909Z,0.02
2023-01-26T19:14:08.498Z,0.44
2023-01-26T19:16:36.388Z,0.36
2023-01-26T19:19:04.985Z,0.25
2023-01-26T19:21:33.998Z,0.27
2023-01-26T19:24:05.905Z,0.26
2023-01-26T19:26:34.571Z,-0.33
2023-01-26T19:29:04.063Z,0.02
2023-01-26T19:31:32.132Z,0.13
2023-01-26T19:34:01.302Z,0.42
2023-01-26T19:36:31.075Z,0.14
2023-01-26T19:38:58.759Z,0.00
2023-01-26T19:41:26.950Z,0.03
2023-01-26T19:43:54.719Z,-0.03
2023-01-26T19:46:23.788Z,0.27
2023-01-26T19:48:51.733Z,0.30
2023-01-26T19:51:21.457Z,0.34
2023-01-26T19:53:50.956Z,-0.10
2023-01-26T19:56:21.020Z,0.28
2023-01-26T19:58:51.188Z,0.32
2023-01-26T20:01:19.961Z,-0.03
2023-01-26T20:03:52.552Z,-0.22
2023-01-26T20:06:21.932Z,-0.02
2023-01-26T20:08:50.322Z,0.30
2023-01-26T20:11:19.797Z,0.14
2023-01-26T20:13:47.446Z,0.28
2023-01-26T20:16:15.186Z,0.20
2023-01-26T20:18:42.903Z,0.32
2023-01-26T20:21:12.117Z,0.05
2023-01-26T20:23:53.402Z,0.32
2023-01-26T20:26:21.945Z,0.10
2023-01-26T20:28:49.507Z,0.30
2023-01-26T20:31:20.445Z,0.60
2023-01-26T20:33:49.594Z,0.74
2023-01-26T20:36:22.481Z,0.52
2023-01-26T20:38:50.745Z,0.74
2023-01-26T20:41:21.541Z,0.58
2023-01-26T20:43:59.208Z,0.25
2023-01-26T20:46:29.432Z,0.43
2023-01-26T20:48:57.690Z,0.93
2023-01-26T20:51:30.341Z,1.12
2023-01-26T20:53:58.606Z,0.95
2023-01-26T20:56:27.539Z,0.84
2023-01-26T20:58:56.567Z,0.57
2023-01-26T21:01:24.895Z,0.03
2023-01-26T21:03:53.089Z,-0.30
2023-01-26T21:06:22.603Z,-0.28
2023-01-26T21:08:54.436Z,-0.04
2023-01-26T21:11:23.755Z,-0.24
2023-01-26T21:13:51.833Z,0.31
2023-01-26T21:16:20.089Z,0.15
2023-01-26T21:18:47.804Z,-0.11
2023-01-26T21:21:17.766Z,-0.03
2023-01-26T21:23:46.495Z,0.23
2023-01-26T21:26:17.444Z,0.51
2023-01-26T21:28:45.314Z,0.64
2023-01-26T21:31:14.704Z,0.89
2023-01-26T21:33:43.775Z,0.68
2023-01-26T21:36:13.516Z,0.51
2023-01-26T21:38:43.634Z,0.31
2023-01-26T21:41:36.139Z,0.10
2023-01-26T21:44:06.936Z,0.60
2023-01-26T21:46:35.362Z,0.74
2023-01-26T21:49:03.198Z,0.78
2023-01-26T21:51:48.823Z,0.44
2023-01-26T21:54:17.164Z,0.28
2023-01-26T21:56:45.338Z,-0.04
2023-01-26T21:59:16.282Z,-0.13
2023-01-26T22:01:45.473Z,0.65
2023-01-26T22:04:15.283Z,0.80
2023-01-26T22:06:43.205Z,0.44
2023-01-26T22:09:12.616Z,0.31
2023-01-26T22:11:40.319Z,0.40
2023-01-26T22:14:08.135Z,0.70
2023-01-26T22:16:37.302Z,1.02
2023-01-26T22:19:05.592Z,1.06
2023-01-26T22:21:33.453Z,0.89
2023-01-26T22:24:01.106Z,0.22
2023-01-26T22:26:28.748Z,0.33
2023-01-26T22:28:58.224Z,0.66
2023-01-26T22:31:27.407Z,0.85
2023-01-26T22:33:58.927Z,0.86
2023-01-26T22:36:27.044Z,1.00
2023-01-26T22:38:54.624Z,1.23
2023-01-26T22:41:23.943Z,1.17
2023-01-26T22:43:54.182Z,1.23
2023-01-26T22:46:23.381Z,1.37
2023-01-26T22:48:51.711Z,1.18
2023-01-26T22:51:22.647Z,1.04
2023-01-26T22:53:51.517Z,1.16
2023-01-26T22:56:20.059Z,0.92
2023-01-26T22:58:57.690Z,1.03
2023-01-26T23:01:27.158Z,0.52
2023-01-26T23:03:56.156Z,0.71
2023-01-26T23:06:25.613Z,0.87
2023-01-26T23:08:53.667Z,0.73
2023-01-26T23:11:23.638Z,0.54
2023-01-26T23:13:52.566Z,0.49
2023-01-26T23:16:21.287Z,0.58
2023-01-26T23:18:48.976Z,0.45
2023-01-26T23:21:16.633Z,0.58
2023-01-26T23:23:45.564Z,0.27
2023-01-26T23:26:13.444Z,0.18
2023-01-26T23:28:43.111Z,0.33
2023-01-26T23:31:12.529Z,0.26
2023-01-26T23:33:40.798Z,0.20
2023-01-26T23:36:10.728Z,0.08
2023-01-26T23:38:38.603Z,0.19
2023-01-26T23:41:08.500Z,0.05
2023-01-26T23:43:36.548Z,0.10
2023-01-26T23:46:04.810Z,0.02
2023-01-26T23:48:32.397Z,0.04
2023-01-26T23:51:03.945Z,-0.03
2023-01-26T23:53:32.114Z,-0.01
2023-01-26T23:56:00.880Z,-0.01
2023-01-26T23:58:29.814Z,0.15
